Time;durP1;ratioP1;P1;durP2;ratioP2;P2;SDS_P1;SDS_P2;PMS_P1;PMS_P2;Temp;Humidity;BMP_temperature;BMP_pressure;BME280_temperature;BME280_humidity;BME280_pressure;Samples;Min_cycle;Max_cycle;Signal;HPM_P1;HPM_P2
2022/03/26 00:01:39;;;;;;;;;;;4.60;99.90;;;;;;5026775;28;19916;-73
2022/03/26 00:04:05;;;;;;;;;;;4.60;99.90;;;;;;5027684;28;19917;-73
2022/03/26 00:06:32;;;;;;;;;;;4.50;99.90;;;;;;5026065;28;20004;-74
2022/03/26 00:08:57;;;;;;;;;;;4.60;99.90;;;;;;5007953;28;19996;-73
2022/03/26 00:11:23;;;;;;;;;;;4.60;99.90;;;;;;5037072;28;19921;-73
2022/03/26 00:13:48;;;;;;;;;;;4.70;99.90;;;;;;5039333;28;19913;-73
2022/03/26 00:16:14;;;;;;;;;;;4.70;99.90;;;;;;5024966;28;19921;-74
2022/03/26 00:18:39;;;;;;;;;;;4.80;99.90;;;;;;5030979;28;20284;-73
2022/03/26 00:21:05;;;;;;;;;;;4.80;99.90;;;;;;5019634;28;19963;-73
2022/03/26 00:23:31;;;;;;;;;;;4.90;99.90;;;;;;5029827;28;20307;-74
2022/03/26 00:25:59;;;;;;;;;;;4.90;99.90;;;;;;5032851;28;19955;-73
2022/03/26 00:28:25;;;;;;;;;;;4.90;99.90;;;;;;5030313;28;19928;-72
2022/03/26 00:30:51;;;;;;;;;;;5.00;99.90;;;;;;5027457;28;20315;-80
2022/03/26 00:33:17;;;;;;;;;;;4.90;99.90;;;;;;5028870;28;19917;-73
2022/03/26 00:35:42;;;;;;;;;;;4.90;99.90;;;;;;5036439;28;19913;-73
2022/03/26 00:38:08;;;;;;;;;;;4.90;99.90;;;;;;5011713;28;20296;-73
2022/03/26 00:40:34;;;;;;;;;;;4.80;99.90;;;;;;5034100;28;20365;-74
2022/03/26 00:43:00;;;;;;;;;;;4.80;99.90;;;;;;5035347;28;20003;-74
2022/03/26 00:45:27;;;;;;;;;;;4.80;99.90;;;;;;5032976;28;20284;-73
2022/03/26 00:47:53;;;;;;;;;;;4.80;99.90;;;;;;5035423;28;19978;-79
2022/03/26 00:50:18;;;;;;;;;;;5.00;99.90;;;;;;5033885;28;20303;-73
2022/03/26 00:52:44;;;;;;;;;;;5.20;99.90;;;;;;5017836;28;20251;-74
2022/03/26 00:55:09;;;;;;;;;;;5.30;99.90;;;;;;5016326;28;20325;-73
2022/03/26 00:57:36;;;;;;;;;;;5.40;99.90;;;;;;5034773;28;19962;-79
2022/03/26 01:00:03;;;;;;;;;;;5.40;99.90;;;;;;5035078;28;19958;-73
2022/03/26 01:02:29;;;;;;;;;;;5.30;99.90;;;;;;5018484;28;19905;-73
2022/03/26 01:04:54;;;;;;;;;;;5.20;99.90;;;;;;5028100;28;19940;-74
2022/03/26 01:07:20;;;;;;;;;;;5.00;99.90;;;;;;5032388;28;19913;-73
2022/03/26 01:09:45;;;;;;;;;;;4.90;99.90;;;;;;5014215;28;19913;-74
2022/03/26 01:12:11;;;;;;;;;;;4.80;99.90;;;;;;5038896;28;19912;-73
2022/03/26 01:14:38;;;;;;;;;;;4.70;99.90;;;;;;5023421;28;20334;-74
2022/03/26 01:17:04;;;;;;;;;;;4.70;99.90;;;;;;5037272;28;20561;-79
2022/03/26 01:19:29;;;;;;;;;;;4.70;99.90;;;;;;5036359;28;19917;-74
2022/03/26 01:21:55;;;;;;;;;;;4.70;99.90;;;;;;5037774;28;19917;-73
2022/03/26 01:24:20;;;;;;;;;;;4.70;99.90;;;;;;5037382;28;20874;-73
2022/03/26 01:26:46;;;;;;;;;;;4.80;99.90;;;;;;5033757;28;19913;-73
2022/03/26 01:29:12;;;;;;;;;;;4.70;99.90;;;;;;5035574;28;20308;-74
2022/03/26 01:31:38;;;;;;;;;;;4.90;99.90;;;;;;5013891;28;19972;-73
2022/03/26 01:34:03;;;;;;;;;;;5.10;99.90;;;;;;5015150;28;19909;-73
2022/03/26 01:36:29;;;;;;;;;;;5.30;99.90;;;;;;5014190;28;19967;-73
2022/03/26 01:38:54;;;;;;;;;;;5.50;99.90;;;;;;5014148;28;19932;-73
2022/03/26 01:41:20;;;;;;;;;;;5.60;99.90;;;;;;5014302;28;19909;-73
2022/03/26 01:43:46;;;;;;;;;;;5.70;99.90;;;;;;5014954;28;19920;-74
2022/03/26 01:46:12;;;;;;;;;;;5.80;99.90;;;;;;5015509;28;20351;-74
2022/03/26 01:48:38;;;;;;;;;;;5.80;99.90;;;;;;5015463;28;20268;-74
2022/03/26 01:51:14;;;;;;;;;;;5.80;99.90;;;;;;5015170;28;19955;-73
2022/03/26 01:53:40;;;;;;;;;;;5.80;99.90;;;;;;5012483;28;19909;-74
2022/03/26 01:56:06;;;;;;;;;;;5.70;99.90;;;;;;5013619;28;19925;-73
2022/03/26 01:58:33;;;;;;;;;;;5.60;99.90;;;;;;5013291;28;19958;-73
2022/03/26 02:00:58;;;;;;;;;;;5.60;99.90;;;;;;5014529;28;19909;-80
2022/03/26 02:03:24;;;;;;;;;;;5.60;99.90;;;;;;5015490;28;19905;-74
2022/03/26 02:05:49;;;;;;;;;;;5.60;99.90;;;;;;5008659;28;20008;-72
2022/03/26 02:08:15;;;;;;;;;;;5.40;99.90;;;;;;5010838;28;20043;-73
2022/03/26 02:10:40;;;;;;;;;;;5.10;99.90;;;;;;5010302;28;19916;-73
2022/03/26 02:13:06;;;;;;;;;;;5.00;99.90;;;;;;5016618;28;19960;-73
2022/03/26 02:15:32;;;;;;;;;;;5.00;99.90;;;;;;5012552;28;19921;-73
2022/03/26 02:17:57;;;;;;;;;;;5.00;99.90;;;;;;5016070;28;20004;-73
2022/03/26 02:20:23;;;;;;;;;;;5.10;99.90;;;;;;5005696;28;19924;-73
2022/03/26 02:22:49;;;;;;;;;;;5.20;99.90;;;;;;5014846;28;19913;-74
2022/03/26 02:25:14;;;;;;;;;;;5.20;99.90;;;;;;5014801;28;20216;-73
2022/03/26 02:27:40;;;;;;;;;;;5.30;99.90;;;;;;5016995;28;19916;-81
2022/03/26 02:30:06;;;;;;;;;;;5.40;99.90;;;;;;5022208;28;19921;-74
2022/03/26 02:32:32;;;;;;;;;;;5.60;99.90;;;;;;5017048;28;19913;-73
2022/03/26 02:34:58;;;;;;;;;;;5.70;99.90;;;;;;5037350;28;20251;-73
2022/03/26 02:37:23;;;;;;;;;;;5.70;99.90;;;;;;5036441;28;20259;-73
2022/03/26 02:39:49;;;;;;;;;;;5.70;99.90;;;;;;5017999;28;19909;-73
2022/03/26 02:42:15;;;;;;;;;;;5.70;99.90;;;;;;5026090;28;19960;-73
2022/03/26 02:44:41;;;;;;;;;;;5.80;99.90;;;;;;5019195;28;19913;-79
2022/03/26 02:47:09;;;;;;;;;;;5.80;99.90;;;;;;5036919;28;20019;-74
2022/03/26 02:49:35;;;;;;;;;;;5.70;99.90;;;;;;5027228;28;19905;-74
2022/03/26 02:52:00;;;;;;;;;;;5.50;99.90;;;;;;5032292;28;19913;-73
2022/03/26 02:54:26;;;;;;;;;;;5.30;99.90;;;;;;5034564;28;19952;-74
2022/03/26 02:56:54;;;;;;;;;;;5.00;99.90;;;;;;5017053;28;19959;-73
2022/03/26 02:59:21;;;;;;;;;;;4.90;99.90;;;;;;5019182;28;19967;-73
2022/03/26 03:01:47;;;;;;;;;;;4.90;99.90;;;;;;5032300;28;19940;-75
2022/03/26 03:04:12;;;;;;;;;;;5.00;99.90;;;;;;5034700;28;19913;-73
2022/03/26 03:06:38;;;;;;;;;;;4.90;99.90;;;;;;5035858;28;19955;-74
2022/03/26 03:09:04;;;;;;;;;;;4.90;99.90;;;;;;5036620;28;19992;-74
2022/03/26 03:11:30;;;;;;;;;;;4.70;99.90;;;;;;5037590;28;19954;-74
2022/03/26 03:13:55;;;;;;;;;;;4.50;99.90;;;;;;5036749;28;20242;-73
2022/03/26 03:16:21;;;;;;;;;;;4.30;99.90;;;;;;5036531;28;20332;-73
2022/03/26 03:18:46;;;;;;;;;;;4.20;99.90;;;;;;5037102;28;19912;-74
2022/03/26 03:21:12;;;;;;;;;;;4.20;99.90;;;;;;5019075;28;19913;-73
2022/03/26 03:23:38;;;;;;;;;;;4.10;99.90;;;;;;5019805;28;19905;-73
2022/03/26 03:26:03;;;;;;;;;;;4.10;99.90;;;;;;5014847;28;20000;-73
2022/03/26 03:28:29;;;;;;;;;;;4.10;99.90;;;;;;5033586;28;19913;-73
2022/03/26 03:30:55;;;;;;;;;;;4.00;99.90;;;;;;5031159;28;19921;-73
2022/03/26 03:33:20;;;;;;;;;;;3.90;99.90;;;;;;5036803;28;19913;-74
2022/03/26 03:35:46;;;;;;;;;;;3.90;99.90;;;;;;5035349;28;19921;-73
2022/03/26 03:38:11;;;;;;;;;;;3.90;99.90;;;;;;5019889;28;20215;-73
2022/03/26 03:40:37;;;;;;;;;;;3.80;99.90;;;;;;5036536;28;20000;-73
2022/03/26 03:43:02;;;;;;;;;;;3.80;99.90;;;;;;5033689;28;20287;-73
2022/03/26 03:45:28;;;;;;;;;;;3.90;99.90;;;;;;5018274;28;19967;-74
2022/03/26 03:47:54;;;;;;;;;;;3.90;99.90;;;;;;5001512;28;19967;-73
2022/03/26 03:50:19;;;;;;;;;;;3.90;99.90;;;;;;5037171;28;20000;-73
2022/03/26 03:52:45;;;;;;;;;;;3.90;99.90;;;;;;5037297;28;19944;-74
2022/03/26 03:55:11;;;;;;;;;;;3.90;99.90;;;;;;5035274;28;19959;-74
2022/03/26 03:57:43;;;;;;;;;;;3.80;99.90;;;;;;5014662;28;19917;-74
2022/03/26 04:00:10;;;;;;;;;;;3.70;99.90;;;;;;5018337;28;20569;-73
2022/03/26 04:02:35;;;;;;;;;;;3.70;99.90;;;;;;5032833;28;20367;-80
2022/03/26 04:05:01;;;;;;;;;;;3.60;99.90;;;;;;5018745;28;19967;-73
2022/03/26 04:07:27;;;;;;;;;;;3.60;99.90;;;;;;5008552;28;19917;-73
2022/03/26 04:09:52;;;;;;;;;;;3.50;99.90;;;;;;5037108;28;19916;-73
2022/03/26 04:12:18;;;;;;;;;;;3.50;99.90;;;;;;5017822;28;20031;-73
2022/03/26 04:14:44;;;;;;;;;;;3.50;99.90;;;;;;5036091;28;20325;-73
2022/03/26 04:17:10;;;;;;;;;;;3.50;99.90;;;;;;5015692;28;19916;-73
2022/03/26 04:19:36;;;;;;;;;;;3.50;99.90;;;;;;5031019;28;19958;-80
2022/03/26 04:22:02;;;;;;;;;;;3.40;99.90;;;;;;5032464;28;20200;-73
2022/03/26 04:24:28;;;;;;;;;;;3.40;99.90;;;;;;5035022;28;19908;-72
2022/03/26 04:26:53;;;;;;;;;;;3.40;99.90;;;;;;5029924;28;19924;-72
2022/03/26 04:29:19;;;;;;;;;;;3.40;99.90;;;;;;5010637;28;19917;-73
2022/03/26 04:31:46;;;;;;;;;;;3.30;99.90;;;;;;5036453;28;20007;-72
2022/03/26 04:34:11;;;;;;;;;;;3.40;99.90;;;;;;5034925;28;19905;-72
2022/03/26 04:36:37;;;;;;;;;;;3.30;99.90;;;;;;5016971;28;19924;-72
2022/03/26 04:39:02;;;;;;;;;;;3.40;99.90;;;;;;5030544;28;19917;-73
2022/03/26 04:41:28;;;;;;;;;;;3.30;99.90;;;;;;5035906;28;20319;-73
2022/03/26 04:43:54;;;;;;;;;;;3.40;99.90;;;;;;5033318;28;20002;-72
2022/03/26 04:46:19;;;;;;;;;;;3.40;99.90;;;;;;5041616;28;20051;-73
2022/03/26 04:48:48;;;;;;;;;;;3.40;99.90;;;;;;5037047;28;19954;-83
2022/03/26 04:51:14;;;;;;;;;;;3.30;99.90;;;;;;5040524;28;19913;-72
2022/03/26 04:53:39;;;;;;;;;;;3.20;99.90;;;;;;5040930;28;20319;-72
2022/03/26 04:56:05;;;;;;;;;;;3.20;99.90;;;;;;5018606;28;19925;-72
2022/03/26 04:58:31;;;;;;;;;;;3.30;99.90;;;;;;5037021;28;19962;-72
2022/03/26 05:00:57;;;;;;;;;;;3.30;99.90;;;;;;5032565;28;19917;-72
2022/03/26 05:03:23;;;;;;;;;;;3.30;99.90;;;;;;5030676;28;19971;-72
2022/03/26 05:05:49;;;;;;;;;;;3.30;99.90;;;;;;5033910;28;20326;-73
2022/03/26 05:08:15;;;;;;;;;;;3.30;99.90;;;;;;5033824;28;20007;-72
2022/03/26 05:10:40;;;;;;;;;;;3.30;99.90;;;;;;5034805;28;20259;-72
2022/03/26 05:13:06;;;;;;;;;;;3.40;99.90;;;;;;5032816;28;19924;-72
2022/03/26 05:15:32;;;;;;;;;;;3.40;99.90;;;;;;5022463;28;19916;-72
2022/03/26 05:17:58;;;;;;;;;;;3.50;99.90;;;;;;5037519;28;20326;-72
2022/03/26 05:20:24;;;;;;;;;;;3.60;99.90;;;;;;5021577;28;19917;-72
2022/03/26 05:22:51;;;;;;;;;;;3.50;99.90;;;;;;5040772;28;19913;-81
2022/03/26 05:25:16;;;;;;;;;;;3.50;99.90;;;;;;5038795;28;19913;-72
2022/03/26 05:27:46;;;;;;;;;;;3.40;99.90;;;;;;5036620;28;19920;-72
2022/03/26 05:30:12;;;;;;;;;;;3.30;99.90;;;;;;5025433;28;19925;-72
2022/03/26 05:32:38;;;;;;;;;;;3.20;99.90;;;;;;5035736;28;19910;-73
2022/03/26 05:35:06;;;;;;;;;;;3.10;99.90;;;;;;5033926;28;20299;-72
2022/03/26 05:37:32;;;;;;;;;;;3.10;99.90;;;;;;5035256;28;19948;-73
2022/03/26 05:39:58;;;;;;;;;;;3.10;99.90;;;;;;5013874;28;20326;-72
2022/03/26 05:42:23;;;;;;;;;;;3.30;99.90;;;;;;5032130;28;19909;-72
2022/03/26 05:44:49;;;;;;;;;;;3.40;99.90;;;;;;5006434;28;19963;-72
2022/03/26 05:47:15;;;;;;;;;;;3.40;99.90;;;;;;5040867;28;20322;-73
2022/03/26 05:49:40;;;;;;;;;;;3.40;99.90;;;;;;5019815;28;19917;-73
2022/03/26 05:52:06;;;;;;;;;;;3.40;99.90;;;;;;5019842;28;20003;-72
2022/03/26 05:54:32;;;;;;;;;;;3.40;99.90;;;;;;5042613;28;19920;-73
2022/03/26 05:56:57;;;;;;;;;;;3.50;99.90;;;;;;5022125;28;19909;-73
2022/03/26 05:59:23;;;;;;;;;;;3.50;99.90;;;;;;5041520;28;19913;-73
2022/03/26 06:01:50;;;;;;;;;;;3.60;99.90;;;;;;5023863;28;19909;-73
2022/03/26 06:04:16;;;;;;;;;;;3.60;99.90;;;;;;5026543;28;20197;-73
2022/03/26 06:06:41;;;;;;;;;;;3.80;99.90;;;;;;5029501;28;19917;-85
2022/03/26 06:09:07;;;;;;;;;;;3.80;99.90;;;;;;5037100;28;19913;-73
2022/03/26 06:11:33;;;;;;;;;;;3.80;99.90;;;;;;5033663;28;20007;-84
2022/03/26 06:13:59;;;;;;;;;;;3.90;99.90;;;;;;5039336;28;19966;-73
2022/03/26 06:16:24;;;;;;;;;;;4.00;99.90;;;;;;5042490;28;19913;-74
2022/03/26 06:18:50;;;;;;;;;;;4.00;99.90;;;;;;5027147;28;19909;-72
2022/03/26 06:21:16;;;;;;;;;;;4.10;99.90;;;;;;5029566;28;19967;-73
2022/03/26 06:23:41;;;;;;;;;;;4.20;99.90;;;;;;5029348;28;20009;-73
2022/03/26 06:26:07;;;;;;;;;;;4.30;99.90;;;;;;5029624;28;19917;-74
2022/03/26 06:28:33;;;;;;;;;;;4.40;99.90;;;;;;5029218;28;19921;-73
2022/03/26 06:30:58;;;;;;;;;;;4.50;99.90;;;;;;5025892;28;20318;-73
2022/03/26 06:33:24;;;;;;;;;;;4.50;99.90;;;;;;5012326;28;19955;-73
2022/03/26 06:35:50;;;;;;;;;;;4.60;99.90;;;;;;5029013;28;19921;-84
2022/03/26 06:38:15;;;;;;;;;;;4.70;99.90;;;;;;5029781;28;19975;-74
2022/03/26 06:40:41;;;;;;;;;;;4.70;99.90;;;;;;5029975;28;19909;-85
2022/03/26 06:43:07;;;;;;;;;;;4.80;99.90;;;;;;5029666;28;20274;-74
2022/03/26 06:45:33;;;;;;;;;;;4.90;99.90;;;;;;5008041;28;19917;-73
2022/03/26 06:47:59;;;;;;;;;;;4.80;99.90;;;;;;5030743;28;20220;-73
2022/03/26 06:50:25;;;;;;;;;;;4.90;99.90;;;;;;5037573;28;19905;-85
2022/03/26 06:52:51;;;;;;;;;;;5.20;99.90;;;;;;5035874;28;20221;-74
2022/03/26 06:55:17;;;;;;;;;;;5.60;99.90;;;;;;5027566;28;19928;-77
2022/03/26 06:57:42;;;;;;;;;;;6.20;99.90;;;;;;5007707;28;19909;-73
2022/03/26 07:00:13;;;;;;;;;;;6.80;99.90;;;;;;5029638;28;20212;-87
2022/03/26 07:02:38;;;;;;;;;;;7.40;99.90;;;;;;5031093;28;19909;-72
2022/03/26 07:05:04;;;;;;;;;;;7.90;99.90;;;;;;5032729;28;20185;-72
2022/03/26 07:07:30;;;;;;;;;;;8.60;99.90;;;;;;5035462;28;19913;-74
2022/03/26 07:09:56;;;;;;;;;;;9.20;99.90;;;;;;5033705;28;19915;-72
2022/03/26 07:12:21;;;;;;;;;;;10.00;99.90;;;;;;5037783;28;19912;-74
2022/03/26 07:14:47;;;;;;;;;;;10.90;99.90;;;;;;5043896;28;19959;-73
2022/03/26 07:17:13;;;;;;;;;;;11.60;99.90;;;;;;5041797;28;20219;-86
2022/03/26 07:19:38;;;;;;;;;;;12.30;99.90;;;;;;5040309;28;19909;-76
2022/03/26 07:22:04;;;;;;;;;;;13.00;99.90;;;;;;5039960;28;19920;-88
2022/03/26 07:24:29;;;;;;;;;;;13.50;99.90;;;;;;5026476;28;19913;-74
2022/03/26 07:26:56;;;;;;;;;;;14.20;99.90;;;;;;5045566;28;19995;-74
2022/03/26 07:29:21;;;;;;;;;;;14.60;99.90;;;;;;5043227;28;19908;-74
2022/03/26 07:31:47;;;;;;;;;;;15.10;99.90;;;;;;5041822;28;19963;-73
2022/03/26 07:34:15;;;;;;;;;;;15.30;99.90;;;;;;5040161;28;19917;-73
2022/03/26 07:36:41;;;;;;;;;;;15.50;99.90;;;;;;5044430;28;19917;-74
2022/03/26 07:39:07;;;;;;;;;;;15.80;99.90;;;;;;5032532;28;20717;-73
2022/03/26 07:41:33;;;;;;;;;;;15.90;99.90;;;;;;5034062;28;19960;-74
2022/03/26 07:43:59;;;;;;;;;;;16.20;99.90;;;;;;5044094;28;19908;-74
2022/03/26 07:46:25;;;;;;;;;;;15.70;99.90;;;;;;5043042;28;19958;-74
2022/03/26 07:48:51;;;;;;;;;;;16.00;99.90;;;;;;5035276;28;19912;-74
2022/03/26 07:51:16;;;;;;;;;;;15.80;99.90;;;;;;5036625;28;20220;-74
2022/03/26 07:53:42;;;;;;;;;;;15.90;99.90;;;;;;5016763;28;19924;-74
2022/03/26 07:56:08;;;;;;;;;;;16.00;99.90;;;;;;5042856;28;19913;-74
2022/03/26 07:58:34;;;;;;;;;;;16.20;99.90;;;;;;5041607;28;19940;-74
2022/03/26 08:00:59;;;;;;;;;;;16.20;99.90;;;;;;5028097;28;20319;-74
2022/03/26 08:03:25;;;;;;;;;;;16.30;99.90;;;;;;5032794;28;19920;-74
2022/03/26 08:05:51;;;;;;;;;;;16.30;99.90;;;;;;5003447;28;19970;-74
2022/03/26 08:08:16;;;;;;;;;;;16.50;99.90;;;;;;5042298;28;19916;-74
2022/03/26 08:10:42;;;;;;;;;;;16.40;99.90;;;;;;5029873;28;19909;-74
2022/03/26 08:13:08;;;;;;;;;;;16.50;99.90;;;;;;5030595;28;19909;-74
2022/03/26 08:15:33;;;;;;;;;;;16.50;99.90;;;;;;5043905;28;19923;-74
2022/03/26 08:18:02;;;;;;;;;;;15.50;99.90;;;;;;5038071;28;20061;-73
2022/03/26 08:20:29;;;;;;;;;;;14.70;99.90;;;;;;5043471;28;19927;-74
2022/03/26 08:22:55;;;;;;;;;;;14.10;99.90;;;;;;5038503;28;19913;-73
2022/03/26 08:28:06;;;;;;;;;;;13.30;99.90;;;;;;5035871;28;19923;-74
2022/03/26 08:30:41;;;;;;;;;;;13.10;99.90;;;;;;5058883;27;20256;-76
2022/03/26 08:33:07;;;;;;;;;;;13.00;99.90;;;;;;5030896;28;19928;-75
2022/03/26 08:35:33;;;;;;;;;;;12.80;99.90;;;;;;5043648;28;19917;-76
2022/03/26 08:37:59;;;;;;;;;;;12.70;99.90;;;;;;5046085;28;19913;-75
2022/03/26 08:40:24;;;;;;;;;;;12.80;99.90;;;;;;5042884;28;19913;-85
2022/03/26 08:42:50;;;;;;;;;;;12.80;99.90;;;;;;5040324;28;19917;-83
2022/03/26 08:45:16;;;;;;;;;;;12.50;99.90;;;;;;5042989;28;19917;-75
2022/03/26 08:47:41;;;;;;;;;;;12.30;99.90;;;;;;5041321;28;19967;-77
2022/03/26 08:50:08;;;;;;;;;;;12.30;99.90;;;;;;5043342;28;19917;-84
2022/03/26 08:52:37;;;;;;;;;;;12.50;99.90;;;;;;5044307;28;19920;-76
2022/03/26 08:55:03;;;;;;;;;;;12.80;99.90;;;;;;5036330;28;20363;-76
2022/03/26 08:57:29;;;;;;;;;;;12.90;99.90;;;;;;5049311;28;19927;-82
2022/03/26 08:59:55;;;;;;;;;;;13.00;99.90;;;;;;5043334;28;19913;-83
2022/03/26 09:02:20;;;;;;;;;;;13.10;99.90;;;;;;5071138;28;19922;-76
2022/03/26 09:04:46;;;;;;;;;;;13.10;99.90;;;;;;5048635;28;20463;-76
2022/03/26 09:07:11;;;;;;;;;;;13.30;99.90;;;;;;5048814;28;19917;-76
2022/03/26 09:09:37;;;;;;;;;;;13.40;99.90;;;;;;5047235;28;19924;-76
2022/03/26 09:12:03;;;;;;;;;;;13.50;99.90;;;;;;5075426;28;20231;-76
2022/03/26 09:14:29;;;;;;;;;;;13.50;99.90;;;;;;5043641;28;19960;-76
2022/03/26 09:16:54;;;;;;;;;;;13.60;99.90;;;;;;5047652;28;19972;-84
2022/03/26 09:19:20;;;;;;;;;;;13.50;99.90;;;;;;5051161;28;19909;-83
2022/03/26 09:21:46;;;;;;;;;;;13.50;99.90;;;;;;5043186;28;19913;-75
2022/03/26 09:24:15;;;;;;;;;;;13.40;99.90;;;;;;5044178;28;19968;-78
2022/03/26 09:26:41;;;;;;;;;;;13.40;99.90;;;;;;5046681;28;19917;-79
2022/03/26 09:29:07;;;;;;;;;;;13.40;99.90;;;;;;5049735;28;20212;-76
2022/03/26 09:31:32;;;;;;;;;;;13.30;99.90;;;;;;5044451;28;19920;-76
2022/03/26 09:33:58;;;;;;;;;;;13.10;99.90;;;;;;5032435;28;19920;-75
2022/03/26 09:36:23;;;;;;;;;;;13.00;99.90;;;;;;5050463;28;20012;-76
2022/03/26 09:38:49;;;;;;;;;;;12.90;99.90;;;;;;5042138;28;19982;-76
2022/03/26 09:41:16;;;;;;;;;;;13.00;99.90;;;;;;5021866;28;19959;-82
2022/03/26 09:43:42;;;;;;;;;;;12.90;99.90;;;;;;5018590;28;19921;-75
2022/03/26 09:46:07;;;;;;;;;;;12.90;99.90;;;;;;5025922;28;20320;-75
2022/03/26 09:48:33;;;;;;;;;;;13.00;99.90;;;;;;5031615;28;19918;-74
2022/03/26 09:51:01;;;;;;;;;;;13.10;99.90;;;;;;5036451;28;19967;-75
2022/03/26 09:53:26;;;;;;;;;;;13.30;99.90;;;;;;5068982;28;19960;-76
2022/03/26 09:55:52;;;;;;;;;;;13.30;99.90;;;;;;5038044;28;19913;-76
2022/03/26 09:58:18;;;;;;;;;;;13.40;99.90;;;;;;5037793;28;19913;-76
2022/03/26 10:00:44;;;;;;;;;;;13.50;99.90;;;;;;5020928;28;19914;-81
2022/03/26 10:03:10;;;;;;;;;;;13.60;99.90;;;;;;5022086;28;19920;-82
2022/03/26 10:05:36;;;;;;;;;;;13.60;99.90;;;;;;5035212;28;19991;-75
2022/03/26 10:08:21;;;;;;;;;;;13.80;99.90;;;;;;5036916;28;19924;-75
2022/03/26 10:10:47;;;;;;;;;;;13.90;99.90;;;;;;5018328;28;19921;-80
2022/03/26 10:13:32;;;;;;;;;;;13.70;99.90;;;;;;5050551;28;20308;-75
2022/03/26 10:16:01;;;;;;;;;;;13.70;99.90;;;;;;5034190;28;19917;-75
2022/03/26 10:18:31;;;;;;;;;;;13.80;99.90;;;;;;5037476;28;19913;-82
2022/03/26 10:20:57;;;;;;;;;;;13.80;99.90;;;;;;5038496;28;19990;-75
2022/03/26 10:23:29;;;;;;;;;;;13.80;99.90;;;;;;5037138;28;19909;-76
2022/03/26 10:26:09;;;;;;;;;;;13.70;99.90;;;;;;5022166;28;20006;-76
2022/03/26 10:28:34;;;;;;;;;;;13.70;99.90;;;;;;5038827;28;19925;-79
2022/03/26 10:34:08;;;;;;;;;;;13.50;99.90;;;;;;5046112;28;19970;-75
2022/03/26 10:36:34;;;;;;;;;;;13.50;99.90;;;;;;5049256;28;19909;-76
2022/03/26 10:39:00;;;;;;;;;;;13.50;99.90;;;;;;5037165;28;19923;-78
2022/03/26 10:41:25;;;;;;;;;;;13.70;99.90;;;;;;5054645;28;20208;-79
2022/03/26 10:44:04;;;;;;;;;;;13.70;99.90;;;;;;5056117;28;20536;-77
2022/03/26 10:46:30;;;;;;;;;;;13.80;99.90;;;;;;5053697;28;20250;-75
2022/03/26 10:49:02;;;;;;;;;;;13.80;99.90;;;;;;5018453;28;19924;-75
2022/03/26 10:51:34;;;;;;;;;;;13.80;99.90;;;;;;5025042;28;19924;-79
2022/03/26 10:54:06;;;;;;;;;;;13.80;99.90;;;;;;5048810;28;19919;-79
2022/03/26 10:56:33;;;;;;;;;;;13.80;99.90;;;;;;5035046;28;19917;-76
2022/03/26 10:58:59;;;;;;;;;;;13.90;99.90;;;;;;5051619;28;20214;-79
2022/03/26 11:01:25;;;;;;;;;;;14.00;99.90;;;;;;5046174;28;19970;-75
2022/03/26 11:03:50;;;;;;;;;;;14.10;99.90;;;;;;5055838;28;20292;-80
2022/03/26 11:06:17;;;;;;;;;;;14.10;99.90;;;;;;5049688;28;20003;-78
2022/03/26 11:08:43;;;;;;;;;;;14.20;99.90;;;;;;5046759;28;20011;-78
2022/03/26 11:11:09;;;;;;;;;;;14.20;99.90;;;;;;5056051;28;19940;-76
2022/03/26 11:13:54;;;;;;;;;;;14.50;99.90;;;;;;5038817;28;19935;-76
2022/03/26 11:16:23;;;;;;;;;;;14.60;99.90;;;;;;5056200;28;19962;-80
2022/03/26 11:19:07;;;;;;;;;;;14.70;99.90;;;;;;5053857;28;19917;-75
2022/03/26 11:21:53;;;;;;;;;;;14.70;99.90;;;;;;5056563;28;19909;-76
2022/03/26 11:24:18;;;;;;;;;;;14.50;99.90;;;;;;5005937;28;20288;-78
2022/03/26 11:27:04;;;;;;;;;;;14.50;99.90;;;;;;5056228;28;19944;-76
2022/03/26 11:29:38;;;;;;;;;;;14.50;99.90;;;;;;5043478;28;20231;-76
2022/03/26 11:32:23;;;;;;;;;;;14.60;99.90;;;;;;5027690;28;19913;-77
2022/03/26 11:34:58;;;;;;;;;;;14.70;99.90;;;;;;5036321;28;19910;-76
2022/03/26 11:37:24;;;;;;;;;;;14.80;99.90;;;;;;5037536;28;19920;-75
2022/03/26 11:39:56;;;;;;;;;;;14.80;99.90;;;;;;5038103;28;19913;-76
2022/03/26 11:42:33;;;;;;;;;;;14.80;99.90;;;;;;5049389;28;20253;-76
2022/03/26 11:50:46;;;;;;;;;;;15.00;99.90;;;;;;5048212;28;19970;-76
2022/03/26 11:53:13;;;;;;;;;;;15.20;99.90;;;;;;5055900;28;20304;-77
2022/03/26 11:55:43;;;;;;;;;;;15.10;99.90;;;;;;5035813;28;20007;-76
2022/03/26 11:58:13;;;;;;;;;;;15.20;99.90;;;;;;5019420;28;19925;-76
2022/03/26 12:01:12;;;;;;;;;;;15.20;99.90;;;;;;5046708;28;20598;-79
2022/03/26 12:03:42;;;;;;;;;;;15.20;99.90;;;;;;4990584;28;19913;-76
2022/03/26 12:08:56;;;;;;;;;;;15.40;99.90;;;;;;4982585;28;19960;-75
2022/03/26 12:11:24;;;;;;;;;;;15.30;99.90;;;;;;4959625;28;20192;-76
2022/03/26 12:14:00;;;;;;;;;;;15.40;99.90;;;;;;4970798;28;20310;-75
2022/03/26 12:16:46;;;;;;;;;;;15.40;99.90;;;;;;4973440;28;19909;-76
2022/03/26 12:19:11;;;;;;;;;;;15.30;99.90;;;;;;4971247;28;19925;-76
2022/03/26 12:21:48;;;;;;;;;;;15.40;99.90;;;;;;4985602;28;19917;-75
2022/03/26 12:24:17;;;;;;;;;;;15.40;99.90;;;;;;4955768;28;20107;-75
2022/03/26 12:26:49;;;;;;;;;;;15.60;99.10;;;;;;4981901;28;19925;-76
2022/03/26 12:29:15;;;;;;;;;;;15.60;99.90;;;;;;4984551;28;19926;-76
2022/03/26 12:31:41;;;;;;;;;;;15.60;98.70;;;;;;4972633;28;20036;-75
2022/03/26 12:34:06;;;;;;;;;;;15.60;98.40;;;;;;4988299;28;20070;-78
2022/03/26 12:36:34;;;;;;;;;;;15.60;98.70;;;;;;4988396;28;20021;-78
2022/03/26 12:39:00;;;;;;;;;;;15.50;97.60;;;;;;5012740;28;19960;-75
2022/03/26 12:41:26;;;;;;;;;;;15.50;98.70;;;;;;5047363;28;20002;-79
2022/03/26 12:43:58;;;;;;;;;;;15.60;98.10;;;;;;5037477;28;19917;-76
2022/03/26 12:46:32;;;;;;;;;;;15.70;98.10;;;;;;5018194;28;20011;-76
2022/03/26 12:48:58;;;;;;;;;;;15.90;97.90;;;;;;5050795;28;19929;-76
2022/03/26 12:51:27;;;;;;;;;;;15.70;97.80;;;;;;5041854;28;20230;-77
2022/03/26 12:53:52;;;;;;;;;;;15.50;97.60;;;;;;5042486;28;19924;-75
2022/03/26 12:56:18;;;;;;;;;;;15.60;97.70;;;;;;5045712;28;19916;-77
2022/03/26 12:58:58;;;;;;;;;;;15.60;97.20;;;;;;5050118;28;19924;-77
2022/03/26 13:01:24;;;;;;;;;;;15.50;96.50;;;;;;5049980;28;19917;-76
2022/03/26 13:03:51;;;;;;;;;;;15.50;97.10;;;;;;5048443;28;20011;-79
2022/03/26 13:06:17;;;;;;;;;;;15.40;97.00;;;;;;5033792;28;19921;-77
2022/03/26 13:08:50;;;;;;;;;;;15.40;97.20;;;;;;5051432;28;19966;-76
2022/03/26 13:11:16;;;;;;;;;;;15.40;97.10;;;;;;5033452;28;19917;-75
2022/03/26 13:13:51;;;;;;;;;;;15.40;97.10;;;;;;5051776;28;19924;-80
2022/03/26 13:16:19;;;;;;;;;;;15.40;96.90;;;;;;5051637;28;19917;-80
2022/03/26 13:18:44;;;;;;;;;;;15.30;96.90;;;;;;5036354;28;19917;-74
2022/03/26 13:21:11;;;;;;;;;;;15.30;96.70;;;;;;5055182;28;20334;-74
2022/03/26 13:23:37;;;;;;;;;;;15.40;98.50;;;;;;5021314;28;20243;-75
2022/03/26 13:26:04;;;;;;;;;;;15.50;96.90;;;;;;5055179;28;19913;-74
2022/03/26 13:28:36;;;;;;;;;;;15.70;97.30;;;;;;5055027;28;20208;-74
2022/03/26 13:31:22;;;;;;;;;;;15.60;95.80;;;;;;5053236;28;19974;-74
2022/03/26 13:33:47;;;;;;;;;;;15.60;96.50;;;;;;5054519;28;19920;-73
2022/03/26 13:36:13;;;;;;;;;;;15.60;96.20;;;;;;5037179;28;20312;-74
2022/03/26 13:38:40;;;;;;;;;;;15.60;95.60;;;;;;5054868;28;20307;-74
2022/03/26 13:41:19;;;;;;;;;;;15.50;94.40;;;;;;5025130;28;19921;-74
2022/03/26 13:43:46;;;;;;;;;;;15.50;93.80;;;;;;5036802;28;19916;-74
2022/03/26 13:46:12;;;;;;;;;;;15.40;94.30;;;;;;5052949;28;19962;-76
2022/03/26 13:48:44;;;;;;;;;;;15.50;94.00;;;;;;5053715;28;19925;-76
2022/03/26 13:51:10;;;;;;;;;;;15.50;93.90;;;;;;5051724;28;20316;-75
2022/03/26 13:53:40;;;;;;;;;;;15.50;94.30;;;;;;5030618;28;19928;-75
2022/03/26 13:56:07;;;;;;;;;;;15.40;94.50;;;;;;5053997;28;19967;-75
2022/03/26 13:58:34;;;;;;;;;;;15.50;95.70;;;;;;5050088;28;20619;-78
2022/03/26 14:00:59;;;;;;;;;;;15.40;94.50;;;;;;5048087;28;20027;-78
2022/03/26 14:03:25;;;;;;;;;;;15.40;95.30;;;;;;5045155;28;19916;-74
2022/03/26 14:05:51;;;;;;;;;;;15.40;94.70;;;;;;5032251;28;20039;-77
2022/03/26 14:08:16;;;;;;;;;;;15.30;95.00;;;;;;5032001;28;19920;-74
2022/03/26 14:10:43;;;;;;;;;;;15.20;95.50;;;;;;5035185;28;20003;-74
2022/03/26 14:13:11;;;;;;;;;;;15.20;95.40;;;;;;5051561;28;20003;-74
2022/03/26 14:15:37;;;;;;;;;;;15.20;96.40;;;;;;5031472;28;19928;-74
2022/03/26 14:18:03;;;;;;;;;;;15.20;96.50;;;;;;5049650;28;20227;-74
2022/03/26 14:20:32;;;;;;;;;;;15.20;97.00;;;;;;5033776;28;20004;-74
2022/03/26 14:22:59;;;;;;;;;;;15.30;97.40;;;;;;5018871;28;19929;-75
2022/03/26 14:25:28;;;;;;;;;;;15.20;97.70;;;;;;5033577;28;19917;-74
2022/03/26 14:27:54;;;;;;;;;;;15.20;98.10;;;;;;5018883;28;20482;-74
2022/03/26 14:30:20;;;;;;;;;;;15.10;98.20;;;;;;5014412;28;19936;-75
2022/03/26 14:32:46;;;;;;;;;;;15.10;99.90;;;;;;5030748;28;20311;-75
2022/03/26 14:35:12;;;;;;;;;;;15.10;99.90;;;;;;5032011;28;19924;-75
2022/03/26 14:37:37;;;;;;;;;;;15.10;99.80;;;;;;5031638;28;19983;-74